VOCBVOCI

Guest
Details From VOCB - COIMBATORE
To VOCI - COCHIN INTL
Flight Number -
Tags generated
Created
Modified
Stats Distance 66 nm / 122 km
Max Altitude 100 ft / 30 m
Waypoints 3
Social Downloads 0
Likes 0
Share VATSIM

Download

Looking for another format? Having issues loading an existing format? Contact us
Advertisement - Login to hide

Notes

Basic altitude profile: - Ascent Rate: 2500ft/min - Ascent Speed: 250kts - Cruise Altitude: 35000ft - Cruise Speed: 420kts - Descent Rate: 1500ft/min - Descent Speed: 250kts Options: - Use NATs: yes - Use PACOTS: yes - Use low airways: yes - Use high airways: yes

Route

VOCB CCB VOCI

ID Type Via Altitude Latitude Longitude Leg Dist Tot Dist Heading (true) Name
O VOCB APT - 0 ft / 0 m 11.03003˚ 77.04338˚ - 0 nm - COIMBATORE
CCB VOR - 100 ft / 30 m 11.03378˚ 77.04806˚ 0 nm 0 nm 51° / 51° COIMBATORE VOR-DME
O VOCI APT - 0 ft / 0 m 10.15200˚ 76.40191˚ 65 nm 65 nm 216° / 216° COCHIN INTL

Altitude Profile

Advertisement - Login to hide

VOCB

Details ICAO VOCB (CJB)
Name COIMBATORE
Region India
Timezone Asia/Kolkata (UTC+5.5)
Stats Elevation 1,324 ft / 404 m (AMSL)
Location 11.030031° 77.043381°
Runways 1
Magnetic Variation 1.510° W

METAR

VOCB 171030Z 05010KT 6000 SCT015 29/15 Q1014 NOSIG

Decode

TAF

TAF VOCB 170500Z 1706/1812 05010KT 6000 FEW015 BECMG 1715/1716 02005KT 5000 HZ BECMG 1721/1722 3000 BR TEMPO 1800/1803 1500 BR BECMG 1806/1807 05010KT 5000 HZ

Decode

Departure Runways

ID Width Length Bearing (true) Bearing (mag) Surface Threshold Offset Overrun Length
05 150 ft / 46 m 8,499 ft / 2,590 m 45.67° 47.18° Asphalt 0 ft / 0 m 185 ft / 56 m
23 150 ft / 46 m 8,499 ft / 2,590 m 225.68° 227.19° Asphalt 0 ft / 0 m 185 ft / 56 m

VOCI

Details ICAO VOCI (COK)
Name COCHIN INTL
Region India
Timezone Asia/Kolkata (UTC+5.5)
Stats Elevation 30 ft / 9 m (AMSL)
Location 10.151996° 76.401905°
Runways 1
Magnetic Variation 1.654° W

METAR

VOCI 171030Z 03009KT 6000 NSC 33/18 Q1008 NOSIG

Decode

TAF

TAF VOCI 170500Z 1706/1812 07005KT 5000 HZ FEW015 BECMG 1716/1717 00000KT 3000 BR TEMPO 1722/1802 2000 BR FEW015 SCT090 BECMG 1805/1806 12005KT 5000 HZ TEMPO 1809/1812 FEW015 FEW025CB

Decode

Destination Runways

ID Width Length Bearing (true) Bearing (mag) Surface Threshold Offset Overrun Length
09 148 ft / 45 m 11,139 ft / 3,395 m 87.86° 89.51° Asphalt 0 ft / 0 m 195 ft / 59 m
27 148 ft / 45 m 11,139 ft / 3,395 m 267.87° 269.52° Asphalt 0 ft / 0 m 195 ft / 59 m

Approach Navaids

Runway Type Ident Frequency Range Bearing (true) Bearing (mag) Slope Elevation
27 Localiser ICIL 110.30 MHz 18 nm / 33 km 266.21° 267.86° - 30 ft / 9 m (AMSL)
27 Glidescope ICIL 110.30 MHz 10 nm / 19 km 267.87° 269.52° 3.00° 28 ft / 9 m (AMSL)
27 DME ICIL 110.30 MHz 18 nm / 33 km - - - 40 ft / 12 m (AMSL)

Popular Alternatives